Flight Track Log - Related Links

Times and Time Zones

All times are in EDT time to prevent confusion due to time zone crossing. See the CTL312 flight status page for this flight to view local times or setup timezone preferences in your user account.

Time Position Orientation Groundspeed Altitude Reporting Facility
EDT Latitude Longitude Course Direction KTS MPH feet Rate Location/Type
Fri 19:08:44 41.5125 -81.6978 328° Northwest 108 124 900  Level Cleveland Center
Fri 19:09:39 41.5394 -81.7206 328° Northwest 135 155 1,700 735 Climbing Cleveland Center
Fri 19:10:22 41.5644 -81.7319 341° North 143 165 2,100 524 Climbing Cleveland Center
Fri 19:11:22 41.6039 -81.7522 339° North 147 169 2,600 496 Climbing Cleveland Center
Fri 19:12:23 41.6433 -81.7697 342° North 147 169 3,100 457 Climbing Cleveland Center
Fri 19:13:07 41.6681 -81.7811 341° North 152 175 3,400 462 Climbing Cleveland Center
Fri 19:14:07 41.6989 -81.8178 318° Northwest 152 175 3,900 500 Climbing Cleveland Center
Fri 19:15:07 41.7297 -81.8547 318° Northwest 152 175 4,400 550 Climbing Cleveland Center
Fri 19:16:07 41.7608 -81.8886 321° Northwest 152 175 5,000 550 Climbing Cleveland Center
Fri 19:17:07 41.7936 -81.9283 318° Northwest 147 169 5,500 500 Climbing Cleveland Center
Fri 19:18:07 41.8225 -81.9625 319° Northwest 142 163 6,000 200 Climbing Cleveland Center
Fri 19:19:07 41.8553 -82.0022 318° Northwest 148 170 5,900 -50 Descending Cleveland Center
Fri 19:20:07 41.8861 -82.0419 316° Northwest 154 177 5,900 50 Level Cleveland Center
Fri 19:21:07 41.9189 -82.0789 320° Northwest 154 177 6,000  Climbing Cleveland Center
Fri 19:22:07 41.9497 -82.1158 318° Northwest 154 177 5,900 -50 Descending Cleveland Center
Fri 19:23:07 41.9825 -82.1531 320° Northwest 154 177 5,900  Level Cleveland Center
Fri 19:24:07 42.0175 -82.1931 320° Northwest 159 183 5,900  Level Cleveland Center
Fri 19:25:07 42.0442 -82.2272 316° Northwest 159 183 5,900  Level Cleveland Center
Fri 19:26:07 42.0811 -82.2672 321° Northwest 159 183 5,900  Level Cleveland Center
Fri 19:27:04 42.1097 -82.3017 318° Northwest 158 182 5,900  Level Cleveland Center
Fri 19:27:46 42.1322 -82.3331 314° West 149 171 5,900  Level Cleveland Center
Fri 19:28:07 42.1425 -82.3444 321° Northwest 159 183 5,900  Level Cleveland Center
Fri 19:28:35 42.1589 -82.3619 322° Northwest 152 175 5,900  Level Cleveland Center
Fri 19:29:07 42.1731 -82.3819 314° West 154 177 5,900 98 Level Cleveland Center
Fri 19:29:36 42.1894 -82.3992 322° Northwest 152 175 6,000  Climbing Cleveland Center
Fri 19:30:07 42.2058 -82.4219 314° West 154 177 5,900 -98 Descending Cleveland Center
Fri 19:30:37 42.2264 -82.4394 328° Northwest 154 177 5,900  Level Cleveland Center
Fri 19:31:07 42.2364 -82.4594 304° West 149 171 5,900  Level Cleveland Center
Fri 19:31:38 42.2550 -82.4794 322° Northwest 153 176 5,900  Level Cleveland Center
Fri 19:32:07 42.2692 -82.4969 318° Northwest 149 171 5,900  Level Cleveland Center
Fri 19:32:39 42.2856 -82.5169 318° Northwest 153 176 5,900  Level Cleveland Center
Fri 19:33:07 42.2997 -82.5314 323° Northwest 154 177 5,900  Level Cleveland Center
Fri 19:33:39 42.3181 -82.5572 314° West 153 176 5,900  Level Cleveland Center
Fri 19:34:07 42.3303 -82.5744 314° West 154 177 5,900  Level Cleveland Center
Fri 19:34:34 42.3447 -82.5947 314° West 153 176 5,900  Level Cleveland Center
Fri 19:35:07 42.3547 -82.6203 298° West 154 177 5,900  Level Cleveland Center
Fri 19:35:35 42.3667 -82.6458 302° West 153 176 5,900  Level Cleveland Center
Fri 19:36:07 42.3789 -82.6661 309° West 149 171 5,900  Level Cleveland Center
Fri 19:36:36 42.3908 -82.6917 302° West 150 173 5,900  Level Cleveland Center
Fri 19:37:37 42.4172 -82.7347 310° West 153 176 5,900  Level Cleveland Center
Fri 19:38:37 42.4475 -82.7753 315° West 149 171 5,900  Level Cleveland Center
Fri 19:39:38 42.4803 -82.8131 320° Northwest 153 176 5,900  Level Cleveland Center
Fri 19:40:39 42.5128 -82.8536 317° Northwest 153 176 5,900  Level Cleveland Center
Fri 19:41:40 42.5433 -82.8911 318° Northwest 153 176 5,900  Level Cleveland Center
Fri 19:42:41 42.5758 -82.9347 315° West 151 174 5,900  Level Cleveland Center
Fri 19:43:42 42.6083 -82.9697 322° Northwest 153 176 5,900  Level Cleveland Center
Fri 19:44:42 42.6389 -83.0106 315° West 154 177 5,900  Level Cleveland Center
Fri 19:45:44 42.6733 -83.0514 319° Northwest 154 177 5,900  Level Cleveland Center
Fri 19:46:44 42.7058 -83.0922 317° Northwest 155 178 5,900  Level Cleveland Center
Fri 19:47:51 42.7406 -83.1331 319° Northwest 156 180 5,900  Level Cleveland Center
Fri 19:49:00 42.7773 -83.1719 322° Northwest  Level FlightAware Approximate
Fri 19:56:00 42.9950 -83.4187 319° Northwest  Level FlightAware Approximate
Fri 19:57:00 43.0255 -83.4549 319° Northwest  Level FlightAware Approximate
Fri 19:58:00 43.0560 -83.4912 319° Northwest  Level FlightAware Approximate
Fri 19:59:00 43.0864 -83.5275 319° Northwest  Level FlightAware Approximate
Fri 20:00:00 43.1169 -83.5639 319° Northwest  Level FlightAware Approximate
Fri 20:01:00 43.1473 -83.6003 319° Northwest  Level FlightAware Approximate
Fri 20:02:00 43.1778 -83.6367 319° Northwest  Level FlightAware Approximate
Fri 20:03:00 43.2082 -83.6732 319° Northwest  Level FlightAware Approximate
Fri 20:04:00 43.2382 -83.7103 318° Northwest  Level FlightAware Approximate
Fri 20:05:00 43.2681 -83.7476 318° Northwest  Level FlightAware Approximate
Fri 20:06:00 43.2975 -83.7856 316° Northwest  Level FlightAware Approximate
Fri 20:07:00 43.3265 -83.8243 316° Northwest  Level FlightAware Approximate
Fri 20:08:00 43.3567 -83.8612 319° Northwest  Level FlightAware Approximate
Fri 20:09:00 43.3871 -83.8977 319° Northwest  Level FlightAware Approximate
Fri 20:10:00 43.4176 -83.9343 319° Northwest  Level FlightAware Approximate
Fri 20:11:00 43.4481 -83.9708 319° Northwest  Level FlightAware Approximate
Fri 20:12:00 43.4785 -84.0074 319° Northwest  Level FlightAware Approximate
Fri 20:13:00 43.5067 -84.0468 305° West  Level FlightAware Approximate
Fri 20:14:00 43.5167 -84.0667 305° West  Level FlightAware Approximate
Fri 20:15:00 43.5329 -84.0796 305° West  Level Estimated
Fri 20:16:00 43.5329 -84.0796 305° West  Level Estimated
Fri 20:17:00 43.5329 -84.0796 305° West  Level Estimated
Fri 20:18:00 43.5329 -84.0796 305° West  Level Estimated
Fri 20:19:00 43.5329 -84.0796 305° West  Level Estimated
Fri 20:20:00 43.5329 -84.0796 305° West  Level Estimated

Login

Don't have an account? Register now (free) for customized features, flight alerts, and more!